sensor_id;sensor_type;location;lat;lon;timestamp;P1;durP1;ratioP1;P2;durP2;ratioP2
58528;SDS011;44322;52.968;5.816;2023-02-15T00:01:33;54.92;;;34.05;;
58528;SDS011;44322;52.968;5.816;2023-02-15T00:04:00;52.50;;;33.15;;
58528;SDS011;44322;52.968;5.816;2023-02-15T00:06:26;48.42;;;31.58;;
58528;SDS011;44322;52.968;5.816;2023-02-15T00:08:51;52.95;;;34.03;;
58528;SDS011;44322;52.968;5.816;2023-02-15T00:11:18;46.20;;;30.83;;
58528;SDS011;44322;52.968;5.816;2023-02-15T00:14:19;38.63;;;25.10;;
58528;SDS011;44322;52.968;5.816;2023-02-15T00:16:47;41.60;;;29.88;;
58528;SDS011;44322;52.968;5.816;2023-02-15T00:19:14;48.70;;;31.25;;
58528;SDS011;44322;52.968;5.816;2023-02-15T00:21:41;47.20;;;31.83;;
58528;SDS011;44322;52.968;5.816;2023-02-15T00:24:08;47.05;;;30.40;;
58528;SDS011;44322;52.968;5.816;2023-02-15T00:26:35;47.28;;;31.77;;
58528;SDS011;44322;52.968;5.816;2023-02-15T00:29:01;33.13;;;21.52;;
58528;SDS011;44322;52.968;5.816;2023-02-15T00:31:27;44.88;;;28.85;;
58528;SDS011;44322;52.968;5.816;2023-02-15T00:33:56;45.90;;;30.00;;
58528;SDS011;44322;52.968;5.816;2023-02-15T00:36:26;45.03;;;27.73;;
58528;SDS011;44322;52.968;5.816;2023-02-15T00:38:51;50.03;;;32.35;;
58528;SDS011;44322;52.968;5.816;2023-02-15T00:41:17;50.28;;;32.92;;
58528;SDS011;44322;52.968;5.816;2023-02-15T00:43:42;52.30;;;33.72;;
58528;SDS011;44322;52.968;5.816;2023-02-15T00:46:08;47.53;;;31.27;;
58528;SDS011;44322;52.968;5.816;2023-02-15T00:48:34;45.25;;;29.85;;
58528;SDS011;44322;52.968;5.816;2023-02-15T00:51:00;44.05;;;29.38;;
58528;SDS011;44322;52.968;5.816;2023-02-15T00:53:26;41.05;;;28.77;;
58528;SDS011;44322;52.968;5.816;2023-02-15T00:55:53;39.03;;;28.45;;
58528;SDS011;44322;52.968;5.816;2023-02-15T00:58:19;32.47;;;22.42;;
58528;SDS011;44322;52.968;5.816;2023-02-15T01:00:45;37.65;;;26.27;;
58528;SDS011;44322;52.968;5.816;2023-02-15T01:03:12;38.13;;;26.67;;
58528;SDS011;44322;52.968;5.816;2023-02-15T01:05:39;39.88;;;28.48;;
58528;SDS011;44322;52.968;5.816;2023-02-15T01:08:04;40.13;;;27.95;;
58528;SDS011;44322;52.968;5.816;2023-02-15T01:10:30;40.03;;;27.20;;
58528;SDS011;44322;52.968;5.816;2023-02-15T01:12:56;41.53;;;28.02;;
58528;SDS011;44322;52.968;5.816;2023-02-15T01:15:22;39.58;;;28.52;;
58528;SDS011;44322;52.968;5.816;2023-02-15T01:17:48;43.40;;;29.15;;
58528;SDS011;44322;52.968;5.816;2023-02-15T01:20:19;40.15;;;26.42;;
58528;SDS011;44322;52.968;5.816;2023-02-15T01:22:45;36.42;;;24.75;;
58528;SDS011;44322;52.968;5.816;2023-02-15T01:25:11;45.72;;;30.13;;
58528;SDS011;44322;52.968;5.816;2023-02-15T01:27:37;46.30;;;27.85;;
58528;SDS011;44322;52.968;5.816;2023-02-15T01:30:02;50.17;;;30.80;;
58528;SDS011;44322;52.968;5.816;2023-02-15T01:32:30;54.22;;;32.60;;
58528;SDS011;44322;52.968;5.816;2023-02-15T01:34:56;60.58;;;32.65;;
58528;SDS011;44322;52.968;5.816;2023-02-15T01:37:22;55.92;;;33.63;;
58528;SDS011;44322;52.968;5.816;2023-02-15T01:39:47;58.00;;;33.65;;
58528;SDS011;44322;52.968;5.816;2023-02-15T01:42:13;53.85;;;32.10;;
58528;SDS011;44322;52.968;5.816;2023-02-15T01:44:46;51.28;;;32.28;;
58528;SDS011;44322;52.968;5.816;2023-02-15T01:47:13;50.03;;;32.20;;
58528;SDS011;44322;52.968;5.816;2023-02-15T01:49:59;50.22;;;31.90;;
58528;SDS011;44322;52.968;5.816;2023-02-15T01:52:27;44.50;;;28.95;;
58528;SDS011;44322;52.968;5.816;2023-02-15T01:54:53;45.67;;;30.95;;
58528;SDS011;44322;52.968;5.816;2023-02-15T01:57:22;59.72;;;35.35;;
58528;SDS011;44322;52.968;5.816;2023-02-15T01:59:52;59.40;;;30.60;;
58528;SDS011;44322;52.968;5.816;2023-02-15T02:02:20;55.67;;;33.50;;
58528;SDS011;44322;52.968;5.816;2023-02-15T02:04:52;43.30;;;30.48;;
58528;SDS011;44322;52.968;5.816;2023-02-15T02:07:21;41.70;;;28.13;;
58528;SDS011;44322;52.968;5.816;2023-02-15T02:09:48;35.67;;;26.90;;
58528;SDS011;44322;52.968;5.816;2023-02-15T02:12:15;41.50;;;28.85;;
58528;SDS011;44322;52.968;5.816;2023-02-15T02:14:42;36.42;;;27.45;;
58528;SDS011;44322;52.968;5.816;2023-02-15T02:17:43;36.22;;;26.25;;
58528;SDS011;44322;52.968;5.816;2023-02-15T02:20:17;42.65;;;26.40;;
58528;SDS011;44322;52.968;5.816;2023-02-15T02:32:02;43.50;;;28.65;;
58528;SDS011;44322;52.968;5.816;2023-02-15T02:34:16;35.05;;;26.35;;
58528;SDS011;44322;52.968;5.816;2023-02-15T02:44:49;35.03;;;24.70;;
58528;SDS011;44322;52.968;5.816;2023-02-15T02:49:52;33.88;;;25.35;;
58528;SDS011;44322;52.968;5.816;2023-02-15T03:00:54;30.02;;;22.30;;
58528;SDS011;44322;52.968;5.816;2023-02-15T03:05:47;36.42;;;26.20;;
58528;SDS011;44322;52.968;5.816;2023-02-15T03:08:17;35.95;;;25.88;;
58528;SDS011;44322;52.968;5.816;2023-02-15T03:10:47;37.40;;;27.75;;
58528;SDS011;44322;52.968;5.816;2023-02-15T03:13:14;40.22;;;26.90;;
58528;SDS011;44322;52.968;5.816;2023-02-15T03:15:39;40.08;;;27.60;;
58528;SDS011;44322;52.968;5.816;2023-02-15T03:18:29;40.20;;;27.80;;
58528;SDS011;44322;52.968;5.816;2023-02-15T03:20:58;38.53;;;26.92;;
58528;SDS011;44322;52.968;5.816;2023-02-15T03:23:25;38.92;;;26.27;;
58528;SDS011;44322;52.968;5.816;2023-02-15T03:28:28;33.63;;;25.45;;
58528;SDS011;44322;52.968;5.816;2023-02-15T03:31:05;36.58;;;27.05;;
58528;SDS011;44322;52.968;5.816;2023-02-15T03:33:32;37.72;;;26.75;;
58528;SDS011;44322;52.968;5.816;2023-02-15T03:36:11;34.00;;;25.77;;
58528;SDS011;44322;52.968;5.816;2023-02-15T03:39:09;33.75;;;24.75;;
58528;SDS011;44322;52.968;5.816;2023-02-15T03:41:37;34.97;;;23.75;;
58528;SDS011;44322;52.968;5.816;2023-02-15T03:46:53;35.05;;;25.58;;
58528;SDS011;44322;52.968;5.816;2023-02-15T03:49:34;36.28;;;26.95;;
58528;SDS011;44322;52.968;5.816;2023-02-15T03:56:26;33.97;;;24.90;;
58528;SDS011;44322;52.968;5.816;2023-02-15T03:58:52;29.50;;;22.65;;
58528;SDS011;44322;52.968;5.816;2023-02-15T04:01:40;35.70;;;26.30;;
58528;SDS011;44322;52.968;5.816;2023-02-15T04:04:23;32.05;;;25.05;;
58528;SDS011;44322;52.968;5.816;2023-02-15T04:06:56;36.00;;;26.88;;
58528;SDS011;44322;52.968;5.816;2023-02-15T04:09:22;37.45;;;26.73;;
58528;SDS011;44322;52.968;5.816;2023-02-15T04:12:06;30.45;;;23.48;;
58528;SDS011;44322;52.968;5.816;2023-02-15T04:14:32;38.03;;;26.33;;
58528;SDS011;44322;52.968;5.816;2023-02-15T04:17:16;37.22;;;26.52;;
58528;SDS011;44322;52.968;5.816;2023-02-15T04:19:42;41.63;;;27.92;;
58528;SDS011;44322;52.968;5.816;2023-02-15T04:22:26;36.40;;;26.58;;
58528;SDS011;44322;52.968;5.816;2023-02-15T04:25:10;39.30;;;28.13;;
58528;SDS011;44322;52.968;5.816;2023-02-15T04:27:39;39.85;;;29.05;;
58528;SDS011;44322;52.968;5.816;2023-02-15T04:30:06;42.37;;;28.97;;
58528;SDS011;44322;52.968;5.816;2023-02-15T04:32:32;42.65;;;27.85;;
58528;SDS011;44322;52.968;5.816;2023-02-15T04:34:58;43.30;;;29.20;;
58528;SDS011;44322;52.968;5.816;2023-02-15T04:37:23;43.45;;;29.48;;
58528;SDS011;44322;52.968;5.816;2023-02-15T04:39:49;45.08;;;30.33;;
58528;SDS011;44322;52.968;5.816;2023-02-15T04:42:15;40.53;;;27.98;;
58528;SDS011;44322;52.968;5.816;2023-02-15T04:44:41;46.08;;;30.67;;
58528;SDS011;44322;52.968;5.816;2023-02-15T04:47:06;49.83;;;31.17;;
58528;SDS011;44322;52.968;5.816;2023-02-15T04:49:32;45.67;;;29.73;;
58528;SDS011;44322;52.968;5.816;2023-02-15T04:51:58;47.85;;;32.15;;
58528;SDS011;44322;52.968;5.816;2023-02-15T04:54:23;46.08;;;31.05;;
58528;SDS011;44322;52.968;5.816;2023-02-15T04:56:49;52.45;;;32.45;;
58528;SDS011;44322;52.968;5.816;2023-02-15T04:59:14;54.00;;;32.63;;
58528;SDS011;44322;52.968;5.816;2023-02-15T05:01:40;51.58;;;31.20;;
58528;SDS011;44322;52.968;5.816;2023-02-15T05:04:06;52.78;;;33.55;;
58528;SDS011;44322;52.968;5.816;2023-02-15T05:06:32;57.85;;;33.35;;
58528;SDS011;44322;52.968;5.816;2023-02-15T05:08:58;49.55;;;32.17;;
58528;SDS011;44322;52.968;5.816;2023-02-15T05:11:24;56.72;;;33.90;;
58528;SDS011;44322;52.968;5.816;2023-02-15T05:13:51;69.70;;;34.65;;
58528;SDS011;44322;52.968;5.816;2023-02-15T05:16:16;52.33;;;32.95;;
58528;SDS011;44322;52.968;5.816;2023-02-15T05:18:42;55.92;;;33.25;;
58528;SDS011;44322;52.968;5.816;2023-02-15T05:21:08;52.40;;;32.92;;
58528;SDS011;44322;52.968;5.816;2023-02-15T05:23:34;45.85;;;30.15;;
58528;SDS011;44322;52.968;5.816;2023-02-15T05:25:59;48.53;;;32.80;;
58528;SDS011;44322;52.968;5.816;2023-02-15T05:28:43;55.58;;;31.30;;
58528;SDS011;44322;52.968;5.816;2023-02-15T05:31:13;49.95;;;31.33;;
58528;SDS011;44322;52.968;5.816;2023-02-15T05:33:40;50.67;;;32.03;;
58528;SDS011;44322;52.968;5.816;2023-02-15T05:36:06;55.03;;;33.15;;
58528;SDS011;44322;52.968;5.816;2023-02-15T05:38:32;48.85;;;32.90;;
58528;SDS011;44322;52.968;5.816;2023-02-15T05:40:58;54.55;;;34.50;;
58528;SDS011;44322;52.968;5.816;2023-02-15T05:43:24;58.63;;;33.05;;
58528;SDS011;44322;52.968;5.816;2023-02-15T05:45:54;54.10;;;34.53;;
58528;SDS011;44322;52.968;5.816;2023-02-15T05:48:20;54.92;;;33.35;;
58528;SDS011;44322;52.968;5.816;2023-02-15T05:50:55;55.72;;;34.67;;
58528;SDS011;44322;52.968;5.816;2023-02-15T05:53:27;58.50;;;36.42;;
58528;SDS011;44322;52.968;5.816;2023-02-15T05:55:54;55.75;;;35.42;;
58528;SDS011;44322;52.968;5.816;2023-02-15T06:01:18;53.92;;;33.38;;
58528;SDS011;44322;52.968;5.816;2023-02-15T06:03:49;55.67;;;35.35;;
58528;SDS011;44322;52.968;5.816;2023-02-15T06:08:43;53.40;;;33.65;;
58528;SDS011;44322;52.968;5.816;2023-02-15T06:11:08;55.63;;;35.92;;
58528;SDS011;44322;52.968;5.816;2023-02-15T06:13:34;54.05;;;34.15;;
58528;SDS011;44322;52.968;5.816;2023-02-15T06:16:00;53.83;;;34.03;;
58528;SDS011;44322;52.968;5.816;2023-02-15T06:18:25;55.08;;;33.25;;
58528;SDS011;44322;52.968;5.816;2023-02-15T06:20:51;52.58;;;34.10;;
58528;SDS011;44322;52.968;5.816;2023-02-15T06:23:17;52.50;;;32.88;;
58528;SDS011;44322;52.968;5.816;2023-02-15T06:25:43;55.53;;;35.47;;
58528;SDS011;44322;52.968;5.816;2023-02-15T06:28:10;50.47;;;31.35;;
58528;SDS011;44322;52.968;5.816;2023-02-15T06:30:35;52.42;;;34.38;;
58528;SDS011;44322;52.968;5.816;2023-02-15T06:33:01;52.35;;;33.28;;
58528;SDS011;44322;52.968;5.816;2023-02-15T06:35:26;55.20;;;34.47;;
58528;SDS011;44322;52.968;5.816;2023-02-15T06:37:52;53.08;;;34.92;;
58528;SDS011;44322;52.968;5.816;2023-02-15T06:40:18;53.85;;;34.38;;
58528;SDS011;44322;52.968;5.816;2023-02-15T06:42:43;50.72;;;33.40;;
58528;SDS011;44322;52.968;5.816;2023-02-15T06:45:09;50.75;;;32.85;;
58528;SDS011;44322;52.968;5.816;2023-02-15T06:47:35;46.90;;;31.55;;
58528;SDS011;44322;52.968;5.816;2023-02-15T06:50:01;52.40;;;33.35;;
58528;SDS011;44322;52.968;5.816;2023-02-15T06:52:27;48.75;;;33.22;;
58528;SDS011;44322;52.968;5.816;2023-02-15T06:54:54;52.20;;;32.45;;
58528;SDS011;44322;52.968;5.816;2023-02-15T06:57:20;51.35;;;33.65;;
58528;SDS011;44322;52.968;5.816;2023-02-15T06:59:45;51.05;;;33.30;;
58528;SDS011;44322;52.968;5.816;2023-02-15T07:02:11;52.10;;;33.72;;
58528;SDS011;44322;52.968;5.816;2023-02-15T07:04:37;56.63;;;34.75;;
58528;SDS011;44322;52.968;5.816;2023-02-15T07:07:03;48.38;;;31.50;;
58528;SDS011;44322;52.968;5.816;2023-02-15T07:09:29;52.35;;;33.03;;
58528;SDS011;44322;52.968;5.816;2023-02-15T07:11:54;46.15;;;30.25;;
58528;SDS011;44322;52.968;5.816;2023-02-15T07:14:38;50.45;;;33.97;;
58528;SDS011;44322;52.968;5.816;2023-02-15T07:17:05;54.35;;;35.65;;
58528;SDS011;44322;52.968;5.816;2023-02-15T07:19:31;54.35;;;34.92;;
58528;SDS011;44322;52.968;5.816;2023-02-15T07:21:57;53.10;;;33.85;;
58528;SDS011;44322;52.968;5.816;2023-02-15T07:24:25;51.92;;;35.05;;
58528;SDS011;44322;52.968;5.816;2023-02-15T07:26:50;56.13;;;34.97;;
58528;SDS011;44322;52.968;5.816;2023-02-15T07:29:16;51.97;;;33.80;;
58528;SDS011;44322;52.968;5.816;2023-02-15T07:31:42;56.53;;;35.05;;
58528;SDS011;44322;52.968;5.816;2023-02-15T07:34:12;62.95;;;36.03;;
58528;SDS011;44322;52.968;5.816;2023-02-15T07:36:38;57.03;;;34.58;;
58528;SDS011;44322;52.968;5.816;2023-02-15T07:39:04;59.90;;;34.65;;
58528;SDS011;44322;52.968;5.816;2023-02-15T07:41:29;63.92;;;37.25;;
58528;SDS011;44322;52.968;5.816;2023-02-15T07:43:55;58.67;;;37.05;;
58528;SDS011;44322;52.968;5.816;2023-02-15T07:46:20;59.88;;;36.75;;
58528;SDS011;44322;52.968;5.816;2023-02-15T07:48:46;59.78;;;36.05;;
58528;SDS011;44322;52.968;5.816;2023-02-15T07:51:13;59.20;;;35.25;;
58528;SDS011;44322;52.968;5.816;2023-02-15T07:53:39;61.40;;;36.55;;
58528;SDS011;44322;52.968;5.816;2023-02-15T07:56:09;63.58;;;38.15;;
58528;SDS011;44322;52.968;5.816;2023-02-15T07:58:36;66.35;;;39.25;;
58528;SDS011;44322;52.968;5.816;2023-02-15T08:01:18;66.03;;;40.42;;
58528;SDS011;44322;52.968;5.816;2023-02-15T08:03:49;63.08;;;39.42;;
58528;SDS011;44322;52.968;5.816;2023-02-15T08:06:15;64.28;;;37.25;;
58528;SDS011;44322;52.968;5.816;2023-02-15T08:08:41;66.40;;;38.30;;
58528;SDS011;44322;52.968;5.816;2023-02-15T08:11:17;61.30;;;37.88;;
58528;SDS011;44322;52.968;5.816;2023-02-15T08:16:39;69.28;;;40.03;;
58528;SDS011;44322;52.968;5.816;2023-02-15T08:21:39;71.57;;;40.05;;
58528;SDS011;44322;52.968;5.816;2023-02-15T08:24:06;76.90;;;41.08;;
58528;SDS011;44322;52.968;5.816;2023-02-15T08:26:32;71.13;;;39.42;;
58528;SDS011;44322;52.968;5.816;2023-02-15T08:28:59;71.78;;;40.50;;
58528;SDS011;44322;52.968;5.816;2023-02-15T08:31:25;76.80;;;41.08;;
58528;SDS011;44322;52.968;5.816;2023-02-15T08:33:51;77.07;;;41.58;;
58528;SDS011;44322;52.968;5.816;2023-02-15T08:36:19;70.03;;;40.83;;
58528;SDS011;44322;52.968;5.816;2023-02-15T08:38:46;75.60;;;41.55;;
58528;SDS011;44322;52.968;5.816;2023-02-15T08:43:46;82.10;;;45.05;;
58528;SDS011;44322;52.968;5.816;2023-02-15T08:46:14;78.30;;;44.58;;
58528;SDS011;44322;52.968;5.816;2023-02-15T08:48:41;90.20;;;45.53;;
58528;SDS011;44322;52.968;5.816;2023-02-15T08:51:10;88.82;;;45.45;;
58528;SDS011;44322;52.968;5.816;2023-02-15T08:53:38;76.85;;;41.88;;
58528;SDS011;44322;52.968;5.816;2023-02-15T08:56:04;71.72;;;40.78;;
58528;SDS011;44322;52.968;5.816;2023-02-15T08:58:30;78.93;;;40.88;;
58528;SDS011;44322;52.968;5.816;2023-02-15T09:00:57;77.32;;;41.25;;
58528;SDS011;44322;52.968;5.816;2023-02-15T09:03:23;78.88;;;40.25;;
58528;SDS011;44322;52.968;5.816;2023-02-15T09:05:48;71.38;;;38.67;;
58528;SDS011;44322;52.968;5.816;2023-02-15T09:08:14;75.88;;;41.20;;
58528;SDS011;44322;52.968;5.816;2023-02-15T09:10:40;79.70;;;43.60;;
58528;SDS011;44322;52.968;5.816;2023-02-15T09:13:06;78.30;;;42.38;;
58528;SDS011;44322;52.968;5.816;2023-02-15T09:15:32;79.72;;;43.05;;
58528;SDS011;44322;52.968;5.816;2023-02-15T09:17:58;82.88;;;45.58;;
58528;SDS011;44322;52.968;5.816;2023-02-15T09:20:31;80.32;;;43.97;;
58528;SDS011;44322;52.968;5.816;2023-02-15T09:22:57;80.53;;;43.50;;
58528;SDS011;44322;52.968;5.816;2023-02-15T09:25:23;85.43;;;44.33;;
58528;SDS011;44322;52.968;5.816;2023-02-15T09:27:48;82.95;;;44.78;;
58528;SDS011;44322;52.968;5.816;2023-02-15T09:30:14;91.30;;;44.83;;
58528;SDS011;44322;52.968;5.816;2023-02-15T09:32:40;89.07;;;46.20;;
58528;SDS011;44322;52.968;5.816;2023-02-15T09:35:05;83.53;;;46.10;;
58528;SDS011;44322;52.968;5.816;2023-02-15T09:37:31;83.38;;;45.90;;
58528;SDS011;44322;52.968;5.816;2023-02-15T09:39:57;81.82;;;43.92;;
58528;SDS011;44322;52.968;5.816;2023-02-15T09:45:04;78.68;;;43.70;;
58528;SDS011;44322;52.968;5.816;2023-02-15T09:51:14;80.65;;;43.83;;
58528;SDS011;44322;52.968;5.816;2023-02-15T10:12:32;65.55;;;38.08;;
58528;SDS011;44322;52.968;5.816;2023-02-15T10:28:26;62.15;;;36.78;;
58528;SDS011;44322;52.968;5.816;2023-02-15T10:31:01;63.58;;;37.45;;
58528;SDS011;44322;52.968;5.816;2023-02-15T10:33:40;60.97;;;36.10;;
58528;SDS011;44322;52.968;5.816;2023-02-15T10:49:57;56.85;;;35.55;;
58528;SDS011;44322;52.968;5.816;2023-02-15T10:55:25;61.03;;;34.78;;
58528;SDS011;44322;52.968;5.816;2023-02-15T11:00:44;60.58;;;35.72;;
58528;SDS011;44322;52.968;5.816;2023-02-15T11:05:53;65.63;;;36.00;;
58528;SDS011;44322;52.968;5.816;2023-02-15T11:08:23;63.55;;;37.08;;
58528;SDS011;44322;52.968;5.816;2023-02-15T11:10:51;58.93;;;36.30;;
58528;SDS011;44322;52.968;5.816;2023-02-15T11:13:20;58.97;;;36.08;;
58528;SDS011;44322;52.968;5.816;2023-02-15T11:18:32;63.20;;;37.88;;
58528;SDS011;44322;52.968;5.816;2023-02-15T11:23:33;65.38;;;38.58;;
58528;SDS011;44322;52.968;5.816;2023-02-15T11:26:02;60.75;;;36.72;;
58528;SDS011;44322;52.968;5.816;2023-02-15T11:28:39;60.28;;;37.92;;
58528;SDS011;44322;52.968;5.816;2023-02-15T11:31:15;59.75;;;37.38;;
58528;SDS011;44322;52.968;5.816;2023-02-15T11:33:44;58.58;;;36.22;;
58528;SDS011;44322;52.968;5.816;2023-02-15T11:36:14;57.25;;;35.78;;
58528;SDS011;44322;52.968;5.816;2023-02-15T11:38:42;59.95;;;36.42;;
58528;SDS011;44322;52.968;5.816;2023-02-15T11:41:10;58.17;;;35.90;;
58528;SDS011;44322;52.968;5.816;2023-02-15T11:46:10;57.47;;;34.80;;
58528;SDS011;44322;52.968;5.816;2023-02-15T11:48:37;53.83;;;33.27;;
58528;SDS011;44322;52.968;5.816;2023-02-15T11:51:03;53.95;;;32.88;;
58528;SDS011;44322;52.968;5.816;2023-02-15T11:53:32;56.42;;;33.78;;
58528;SDS011;44322;52.968;5.816;2023-02-15T11:55:58;55.60;;;33.20;;
58528;SDS011;44322;52.968;5.816;2023-02-15T11:58:35;50.38;;;32.47;;
58528;SDS011;44322;52.968;5.816;2023-02-15T12:01:13;50.03;;;31.52;;
58528;SDS011;44322;52.968;5.816;2023-02-15T12:04:43;50.42;;;32.00;;
58528;SDS011;44322;52.968;5.816;2023-02-15T12:09:16;48.97;;;30.92;;
58528;SDS011;44322;52.968;5.816;2023-02-15T12:11:45;55.63;;;32.22;;
58528;SDS011;44322;52.968;5.816;2023-02-15T12:14:12;56.03;;;31.20;;
58528;SDS011;44322;52.968;5.816;2023-02-15T12:16:44;53.53;;;32.40;;
58528;SDS011;44322;52.968;5.816;2023-02-15T12:22:00;50.65;;;30.80;;
58528;SDS011;44322;52.968;5.816;2023-02-15T12:24:29;51.45;;;31.70;;
58528;SDS011;44322;52.968;5.816;2023-02-15T12:27:17;52.50;;;31.98;;
58528;SDS011;44322;52.968;5.816;2023-02-15T12:32:19;50.90;;;31.25;;
58528;SDS011;44322;52.968;5.816;2023-02-15T12:34:48;53.08;;;30.80;;
58528;SDS011;44322;52.968;5.816;2023-02-15T12:37:17;51.37;;;31.30;;
58528;SDS011;44322;52.968;5.816;2023-02-15T12:39:53;54.13;;;30.60;;
58528;SDS011;44322;52.968;5.816;2023-02-15T12:42:21;47.78;;;28.80;;
58528;SDS011;44322;52.968;5.816;2023-02-15T12:45:00;50.20;;;31.17;;
58528;SDS011;44322;52.968;5.816;2023-02-15T12:47:28;48.88;;;30.50;;
58528;SDS011;44322;52.968;5.816;2023-02-15T12:52:45;51.30;;;31.80;;
58528;SDS011;44322;52.968;5.816;2023-02-15T12:55:26;48.42;;;30.45;;
58528;SDS011;44322;52.968;5.816;2023-02-15T12:58:05;52.03;;;30.50;;
58528;SDS011;44322;52.968;5.816;2023-02-15T13:00:30;53.05;;;30.00;;
58528;SDS011;44322;52.968;5.816;2023-02-15T13:02:57;53.95;;;30.50;;
58528;SDS011;44322;52.968;5.816;2023-02-15T13:10:51;48.63;;;30.65;;
58528;SDS011;44322;52.968;5.816;2023-02-15T13:13:31;50.88;;;31.45;;
58528;SDS011;44322;52.968;5.816;2023-02-15T13:16:09;51.90;;;30.70;;
58528;SDS011;44322;52.968;5.816;2023-02-15T13:18:42;51.53;;;31.10;;
58528;SDS011;44322;52.968;5.816;2023-02-15T13:21:13;49.53;;;30.27;;
58528;SDS011;44322;52.968;5.816;2023-02-15T13:24:05;49.67;;;30.25;;
58528;SDS011;44322;52.968;5.816;2023-02-15T13:26:48;52.53;;;30.70;;
58528;SDS011;44322;52.968;5.816;2023-02-15T13:29:18;51.40;;;30.88;;
58528;SDS011;44322;52.968;5.816;2023-02-15T13:31:47;51.90;;;30.83;;
58528;SDS011;44322;52.968;5.816;2023-02-15T13:34:16;53.28;;;31.13;;
58528;SDS011;44322;52.968;5.816;2023-02-15T13:36:48;48.53;;;30.65;;
58528;SDS011;44322;52.968;5.816;2023-02-15T13:42:27;51.58;;;31.63;;
58528;SDS011;44322;52.968;5.816;2023-02-15T13:50:38;51.80;;;29.95;;
58528;SDS011;44322;52.968;5.816;2023-02-15T13:56:20;53.05;;;31.25;;
58528;SDS011;44322;52.968;5.816;2023-02-15T13:59:28;53.72;;;31.35;;
58528;SDS011;44322;52.968;5.816;2023-02-15T14:04:49;56.75;;;33.22;;
58528;SDS011;44322;52.968;5.816;2023-02-15T14:07:30;54.07;;;31.93;;
58528;SDS011;44322;52.968;5.816;2023-02-15T14:15:49;55.00;;;31.33;;
58528;SDS011;44322;52.968;5.816;2023-02-15T14:29:18;52.15;;;29.80;;
58528;SDS011;44322;52.968;5.816;2023-02-15T14:32:10;50.60;;;30.63;;
58528;SDS011;44322;52.968;5.816;2023-02-15T14:34:43;52.40;;;30.15;;
58528;SDS011;44322;52.968;5.816;2023-02-15T14:37:12;51.85;;;30.85;;
58528;SDS011;44322;52.968;5.816;2023-02-15T14:48:00;50.33;;;30.77;;
58528;SDS011;44322;52.968;5.816;2023-02-15T14:50:48;53.80;;;31.88;;
58528;SDS011;44322;52.968;5.816;2023-02-15T15:01:40;53.63;;;31.38;;
58528;SDS011;44322;52.968;5.816;2023-02-15T15:04:35;50.58;;;31.88;;
58528;SDS011;44322;52.968;5.816;2023-02-15T15:07:48;54.67;;;31.17;;
58528;SDS011;44322;52.968;5.816;2023-02-15T15:28:05;59.20;;;32.58;;
58528;SDS011;44322;52.968;5.816;2023-02-15T15:30:55;54.75;;;32.58;;
58528;SDS011;44322;52.968;5.816;2023-02-15T15:53:47;55.22;;;34.05;;
58528;SDS011;44322;52.968;5.816;2023-02-15T15:56:20;59.70;;;36.03;;
58528;SDS011;44322;52.968;5.816;2023-02-15T15:58:50;63.00;;;35.47;;
58528;SDS011;44322;52.968;5.816;2023-02-15T16:01:24;60.53;;;35.47;;
58528;SDS011;44322;52.968;5.816;2023-02-15T16:03:51;56.67;;;34.17;;
58528;SDS011;44322;52.968;5.816;2023-02-15T16:06:31;68.85;;;43.45;;
58528;SDS011;44322;52.968;5.816;2023-02-15T16:09:21;60.60;;;35.55;;
58528;SDS011;44322;52.968;5.816;2023-02-15T16:11:49;60.90;;;36.42;;
58528;SDS011;44322;52.968;5.816;2023-02-15T16:14:38;59.53;;;34.78;;
58528;SDS011;44322;52.968;5.816;2023-02-15T16:17:04;62.00;;;37.17;;
58528;SDS011;44322;52.968;5.816;2023-02-15T16:19:40;59.15;;;36.88;;
58528;SDS011;44322;52.968;5.816;2023-02-15T16:22:26;62.80;;;37.43;;
58528;SDS011;44322;52.968;5.816;2023-02-15T16:28:06;60.42;;;36.97;;
58528;SDS011;44322;52.968;5.816;2023-02-15T16:30:34;59.28;;;36.22;;
58528;SDS011;44322;52.968;5.816;2023-02-15T16:35:56;63.50;;;38.50;;
58528;SDS011;44322;52.968;5.816;2023-02-15T16:39:07;68.45;;;38.78;;
58528;SDS011;44322;52.968;5.816;2023-02-15T16:43:39;63.10;;;36.58;;
58528;SDS011;44322;52.968;5.816;2023-02-15T16:46:06;60.05;;;36.80;;
58528;SDS011;44322;52.968;5.816;2023-02-15T16:49:04;61.17;;;36.22;;
58528;SDS011;44322;52.968;5.816;2023-02-15T16:52:00;61.28;;;37.15;;
58528;SDS011;44322;52.968;5.816;2023-02-15T16:54:30;67.82;;;37.58;;
58528;SDS011;44322;52.968;5.816;2023-02-15T16:56:57;60.10;;;34.40;;
58528;SDS011;44322;52.968;5.816;2023-02-15T16:59:31;66.90;;;38.60;;
58528;SDS011;44322;52.968;5.816;2023-02-15T17:01:58;64.03;;;38.15;;
58528;SDS011;44322;52.968;5.816;2023-02-15T17:06:58;67.80;;;39.97;;
58528;SDS011;44322;52.968;5.816;2023-02-15T17:09:58;61.72;;;38.38;;
58528;SDS011;44322;52.968;5.816;2023-02-15T17:12:44;64.80;;;39.13;;
58528;SDS011;44322;52.968;5.816;2023-02-15T17:15:31;66.22;;;39.15;;
58528;SDS011;44322;52.968;5.816;2023-02-15T17:18:17;59.83;;;37.97;;
58528;SDS011;44322;52.968;5.816;2023-02-15T17:20:45;67.10;;;37.28;;
58528;SDS011;44322;52.968;5.816;2023-02-15T17:23:46;67.63;;;38.97;;
58528;SDS011;44322;52.968;5.816;2023-02-15T17:26:21;64.25;;;38.63;;
58528;SDS011;44322;52.968;5.816;2023-02-15T17:31:18;72.97;;;40.10;;
58528;SDS011;44322;52.968;5.816;2023-02-15T17:33:45;62.65;;;37.85;;
58528;SDS011;44322;52.968;5.816;2023-02-15T17:36:18;63.13;;;37.45;;
58528;SDS011;44322;52.968;5.816;2023-02-15T17:41:41;64.97;;;37.28;;
58528;SDS011;44322;52.968;5.816;2023-02-15T17:44:11;65.00;;;37.65;;
58528;SDS011;44322;52.968;5.816;2023-02-15T17:46:39;69.63;;;42.13;;
58528;SDS011;44322;52.968;5.816;2023-02-15T17:49:05;69.32;;;39.40;;
58528;SDS011;44322;52.968;5.816;2023-02-15T17:51:32;69.35;;;42.25;;
58528;SDS011;44322;52.968;5.816;2023-02-15T17:54:00;65.78;;;39.03;;
58528;SDS011;44322;52.968;5.816;2023-02-15T17:56:45;69.95;;;41.50;;
58528;SDS011;44322;52.968;5.816;2023-02-15T17:59:11;73.65;;;41.90;;
58528;SDS011;44322;52.968;5.816;2023-02-15T18:01:42;65.72;;;38.95;;
58528;SDS011;44322;52.968;5.816;2023-02-15T18:04:28;71.18;;;40.33;;
58528;SDS011;44322;52.968;5.816;2023-02-15T18:07:13;67.35;;;39.00;;
58528;SDS011;44322;52.968;5.816;2023-02-15T18:09:57;69.75;;;39.03;;
58528;SDS011;44322;52.968;5.816;2023-02-15T18:12:41;69.20;;;40.28;;
58528;SDS011;44322;52.968;5.816;2023-02-15T18:15:07;62.58;;;36.28;;
58528;SDS011;44322;52.968;5.816;2023-02-15T18:17:34;61.63;;;36.78;;
58528;SDS011;44322;52.968;5.816;2023-02-15T18:24:55;92.47;;;51.22;;
58528;SDS011;44322;52.968;5.816;2023-02-15T18:27:20;98.43;;;53.70;;
58528;SDS011;44322;52.968;5.816;2023-02-15T18:29:46;102.78;;;58.20;;
58528;SDS011;44322;52.968;5.816;2023-02-15T18:32:25;76.30;;;43.50;;
58528;SDS011;44322;52.968;5.816;2023-02-15T18:34:53;84.05;;;49.83;;
58528;SDS011;44322;52.968;5.816;2023-02-15T18:37:20;86.55;;;53.25;;
58528;SDS011;44322;52.968;5.816;2023-02-15T18:39:47;86.03;;;50.15;;
58528;SDS011;44322;52.968;5.816;2023-02-15T18:42:18;91.20;;;53.13;;
58528;SDS011;44322;52.968;5.816;2023-02-15T18:44:48;78.90;;;46.17;;
58528;SDS011;44322;52.968;5.816;2023-02-15T18:47:14;75.22;;;43.40;;